sensor_id;sensor_type;location;lat;lon;timestamp;temperature;humidity
37844;DHT22;63793;57.632;18.292;2023-03-14T00:01:11;6.70;99.90
37844;DHT22;63793;57.632;18.292;2023-03-14T00:03:38;6.70;99.90
37844;DHT22;63793;57.632;18.292;2023-03-14T00:06:06;6.60;99.90
37844;DHT22;63793;57.632;18.292;2023-03-14T00:08:34;6.60;99.90
37844;DHT22;63793;57.632;18.292;2023-03-14T00:11:05;6.60;99.90
37844;DHT22;63793;57.632;18.292;2023-03-14T00:13:32;6.70;99.90
37844;DHT22;63793;57.632;18.292;2023-03-14T00:16:04;6.70;99.90
37844;DHT22;63793;57.632;18.292;2023-03-14T00:18:31;6.70;99.90
37844;DHT22;63793;57.632;18.292;2023-03-14T00:20:59;6.70;99.90
37844;DHT22;63793;57.632;18.292;2023-03-14T00:23:27;6.70;99.90
37844;DHT22;63793;57.632;18.292;2023-03-14T00:26:02;6.60;99.90
37844;DHT22;63793;57.632;18.292;2023-03-14T00:28:29;6.70;99.90
37844;DHT22;63793;57.632;18.292;2023-03-14T00:30:56;6.70;99.90
37844;DHT22;63793;57.632;18.292;2023-03-14T00:33:23;6.60;99.90
37844;DHT22;63793;57.632;18.292;2023-03-14T00:35:58;6.60;99.90
37844;DHT22;63793;57.632;18.292;2023-03-14T00:38:29;6.60;99.90
37844;DHT22;63793;57.632;18.292;2023-03-14T00:40:57;6.70;99.90
37844;DHT22;63793;57.632;18.292;2023-03-14T00:43:25;6.60;99.90
37844;DHT22;63793;57.632;18.292;2023-03-14T00:45:53;6.60;99.90
37844;DHT22;63793;57.632;18.292;2023-03-14T00:48:20;6.60;99.90
37844;DHT22;63793;57.632;18.292;2023-03-14T00:50:47;6.70;99.90
37844;DHT22;63793;57.632;18.292;2023-03-14T00:53:14;6.80;99.90
37844;DHT22;63793;57.632;18.292;2023-03-14T00:55:43;6.90;99.90
37844;DHT22;63793;57.632;18.292;2023-03-14T00:58:12;6.90;99.90
37844;DHT22;63793;57.632;18.292;2023-03-14T01:00:40;6.80;99.90
37844;DHT22;63793;57.632;18.292;2023-03-14T01:03:08;6.90;99.90
37844;DHT22;63793;57.632;18.292;2023-03-14T01:05:35;6.90;99.90
37844;DHT22;63793;57.632;18.292;2023-03-14T01:08:03;6.90;99.90
37844;DHT22;63793;57.632;18.292;2023-03-14T01:10:30;6.90;99.90
37844;DHT22;63793;57.632;18.292;2023-03-14T01:12:57;6.90;99.90
37844;DHT22;63793;57.632;18.292;2023-03-14T01:15:24;6.90;99.90
37844;DHT22;63793;57.632;18.292;2023-03-14T01:17:51;6.90;99.90
37844;DHT22;63793;57.632;18.292;2023-03-14T01:20:18;7.00;99.90
37844;DHT22;63793;57.632;18.292;2023-03-14T01:22:45;7.00;99.90
37844;DHT22;63793;57.632;18.292;2023-03-14T01:25:14;7.00;99.90
37844;DHT22;63793;57.632;18.292;2023-03-14T01:27:41;7.00;99.90
37844;DHT22;63793;57.632;18.292;2023-03-14T01:30:09;7.10;99.90
37844;DHT22;63793;57.632;18.292;2023-03-14T01:32:38;7.10;99.90
37844;DHT22;63793;57.632;18.292;2023-03-14T01:35:05;7.20;99.90
37844;DHT22;63793;57.632;18.292;2023-03-14T01:37:32;7.20;99.90
37844;DHT22;63793;57.632;18.292;2023-03-14T01:39:59;7.30;99.90
37844;DHT22;63793;57.632;18.292;2023-03-14T01:42:26;7.30;99.90
37844;DHT22;63793;57.632;18.292;2023-03-14T01:47:22;7.30;99.90
37844;DHT22;63793;57.632;18.292;2023-03-14T01:49:55;7.30;99.90
37844;DHT22;63793;57.632;18.292;2023-03-14T01:52:27;7.20;99.90
37844;DHT22;63793;57.632;18.292;2023-03-14T01:54:59;7.10;99.90
37844;DHT22;63793;57.632;18.292;2023-03-14T01:57:33;7.10;99.90
37844;DHT22;63793;57.632;18.292;2023-03-14T02:00:14;7.00;99.90
37844;DHT22;63793;57.632;18.292;2023-03-14T02:02:44;7.00;99.90
37844;DHT22;63793;57.632;18.292;2023-03-14T02:05:14;7.00;99.90
37844;DHT22;63793;57.632;18.292;2023-03-14T02:10:32;7.00;99.90
37844;DHT22;63793;57.632;18.292;2023-03-14T02:13:04;7.00;99.90
37844;DHT22;63793;57.632;18.292;2023-03-14T02:15:39;7.00;99.90
37844;DHT22;63793;57.632;18.292;2023-03-14T02:18:12;7.00;99.90
37844;DHT22;63793;57.632;18.292;2023-03-14T02:21:09;7.00;99.90
37844;DHT22;63793;57.632;18.292;2023-03-14T02:29:14;6.90;99.90
37844;DHT22;63793;57.632;18.292;2023-03-14T02:31:41;6.80;99.90
37844;DHT22;63793;57.632;18.292;2023-03-14T02:34:08;6.80;99.90
37844;DHT22;63793;57.632;18.292;2023-03-14T02:36:36;6.80;99.90
37844;DHT22;63793;57.632;18.292;2023-03-14T02:39:14;6.80;99.90
37844;DHT22;63793;57.632;18.292;2023-03-14T02:41:45;6.70;99.90
37844;DHT22;63793;57.632;18.292;2023-03-14T02:44:12;6.70;99.90
37844;DHT22;63793;57.632;18.292;2023-03-14T02:46:39;6.70;99.90
37844;DHT22;63793;57.632;18.292;2023-03-14T02:49:08;6.70;99.90
37844;DHT22;63793;57.632;18.292;2023-03-14T02:51:37;6.70;99.90
37844;DHT22;63793;57.632;18.292;2023-03-14T02:54:05;6.80;99.90
37844;DHT22;63793;57.632;18.292;2023-03-14T02:56:32;6.80;99.90
37844;DHT22;63793;57.632;18.292;2023-03-14T02:59:05;6.80;99.90
37844;DHT22;63793;57.632;18.292;2023-03-14T03:01:48;6.90;99.90
37844;DHT22;63793;57.632;18.292;2023-03-14T03:04:15;6.90;99.90
37844;DHT22;63793;57.632;18.292;2023-03-14T03:06:45;6.90;99.90
37844;DHT22;63793;57.632;18.292;2023-03-14T03:09:13;6.80;99.90
37844;DHT22;63793;57.632;18.292;2023-03-14T03:11:39;6.90;99.90
37844;DHT22;63793;57.632;18.292;2023-03-14T03:14:08;6.90;99.90
37844;DHT22;63793;57.632;18.292;2023-03-14T03:16:35;6.90;99.90
37844;DHT22;63793;57.632;18.292;2023-03-14T03:19:02;6.90;99.90
37844;DHT22;63793;57.632;18.292;2023-03-14T03:21:29;6.90;99.90
37844;DHT22;63793;57.632;18.292;2023-03-14T03:23:56;6.90;99.90
37844;DHT22;63793;57.632;18.292;2023-03-14T03:26:23;6.80;99.90
37844;DHT22;63793;57.632;18.292;2023-03-14T03:28:51;6.80;99.90
37844;DHT22;63793;57.632;18.292;2023-03-14T03:31:18;6.80;99.90
37844;DHT22;63793;57.632;18.292;2023-03-14T03:33:46;6.80;99.90
37844;DHT22;63793;57.632;18.292;2023-03-14T03:36:13;6.80;99.90
37844;DHT22;63793;57.632;18.292;2023-03-14T03:38:40;6.80;99.90
37844;DHT22;63793;57.632;18.292;2023-03-14T03:41:08;6.80;99.90
37844;DHT22;63793;57.632;18.292;2023-03-14T03:43:35;6.80;99.90
37844;DHT22;63793;57.632;18.292;2023-03-14T03:46:05;6.80;99.90
37844;DHT22;63793;57.632;18.292;2023-03-14T03:48:34;6.80;99.90
37844;DHT22;63793;57.632;18.292;2023-03-14T03:51:04;6.80;99.90
37844;DHT22;63793;57.632;18.292;2023-03-14T03:53:31;6.80;99.90
37844;DHT22;63793;57.632;18.292;2023-03-14T03:56:04;6.80;99.90
37844;DHT22;63793;57.632;18.292;2023-03-14T03:58:33;6.80;99.90
37844;DHT22;63793;57.632;18.292;2023-03-14T04:01:00;6.80;99.90
37844;DHT22;63793;57.632;18.292;2023-03-14T04:03:27;6.80;99.90
37844;DHT22;63793;57.632;18.292;2023-03-14T04:06:04;6.80;99.90
37844;DHT22;63793;57.632;18.292;2023-03-14T04:08:33;6.80;99.90
37844;DHT22;63793;57.632;18.292;2023-03-14T04:11:01;6.80;99.90
37844;DHT22;63793;57.632;18.292;2023-03-14T04:13:46;6.80;99.90
37844;DHT22;63793;57.632;18.292;2023-03-14T04:16:18;6.80;99.90
37844;DHT22;63793;57.632;18.292;2023-03-14T04:18:46;6.70;99.90
37844;DHT22;63793;57.632;18.292;2023-03-14T04:21:14;6.70;99.90
37844;DHT22;63793;57.632;18.292;2023-03-14T04:23:47;6.70;99.90
37844;DHT22;63793;57.632;18.292;2023-03-14T04:26:16;6.70;99.90
37844;DHT22;63793;57.632;18.292;2023-03-14T04:28:43;6.60;99.90
37844;DHT22;63793;57.632;18.292;2023-03-14T04:31:15;6.60;99.90
37844;DHT22;63793;57.632;18.292;2023-03-14T04:33:43;6.70;99.90
37844;DHT22;63793;57.632;18.292;2023-03-14T04:36:13;6.70;99.90
37844;DHT22;63793;57.632;18.292;2023-03-14T04:38:41;6.70;99.90
37844;DHT22;63793;57.632;18.292;2023-03-14T04:41:09;6.70;99.90
37844;DHT22;63793;57.632;18.292;2023-03-14T04:43:35;6.80;99.90
37844;DHT22;63793;57.632;18.292;2023-03-14T04:46:06;6.80;99.90
37844;DHT22;63793;57.632;18.292;2023-03-14T04:48:33;6.80;99.90
37844;DHT22;63793;57.632;18.292;2023-03-14T04:51:01;6.80;99.90
37844;DHT22;63793;57.632;18.292;2023-03-14T04:53:31;6.80;99.90
37844;DHT22;63793;57.632;18.292;2023-03-14T04:56:00;6.90;99.90
37844;DHT22;63793;57.632;18.292;2023-03-14T04:58:34;6.90;99.90
37844;DHT22;63793;57.632;18.292;2023-03-14T05:01:03;6.90;99.90
37844;DHT22;63793;57.632;18.292;2023-03-14T05:03:50;6.90;99.90
37844;DHT22;63793;57.632;18.292;2023-03-14T05:06:26;6.90;99.90
37844;DHT22;63793;57.632;18.292;2023-03-14T05:09:19;6.90;99.90
37844;DHT22;63793;57.632;18.292;2023-03-14T05:11:49;6.90;99.90
37844;DHT22;63793;57.632;18.292;2023-03-14T05:14:50;6.80;99.90
37844;DHT22;63793;57.632;18.292;2023-03-14T05:17:49;6.80;99.90
37844;DHT22;63793;57.632;18.292;2023-03-14T05:20:51;6.90;99.90
37844;DHT22;63793;57.632;18.292;2023-03-14T05:23:45;6.90;99.90
37844;DHT22;63793;57.632;18.292;2023-03-14T05:26:25;6.90;99.90
37844;DHT22;63793;57.632;18.292;2023-03-14T05:29:12;7.00;99.90
37844;DHT22;63793;57.632;18.292;2023-03-14T05:31:51;7.00;99.90
37844;DHT22;63793;57.632;18.292;2023-03-14T05:34:29;7.00;99.90
37844;DHT22;63793;57.632;18.292;2023-03-14T05:37:12;7.00;99.90
37844;DHT22;63793;57.632;18.292;2023-03-14T05:40:09;7.00;99.90
37844;DHT22;63793;57.632;18.292;2023-03-14T05:42:51;6.90;99.90
37844;DHT22;63793;57.632;18.292;2023-03-14T05:45:39;7.00;99.90
37844;DHT22;63793;57.632;18.292;2023-03-14T05:48:24;7.00;99.90
37844;DHT22;63793;57.632;18.292;2023-03-14T05:51:07;7.00;99.90
37844;DHT22;63793;57.632;18.292;2023-03-14T05:53:46;6.90;99.90
37844;DHT22;63793;57.632;18.292;2023-03-14T05:56:32;6.90;99.90
37844;DHT22;63793;57.632;18.292;2023-03-14T05:59:25;6.90;99.90
37844;DHT22;63793;57.632;18.292;2023-03-14T06:02:11;6.90;99.90
37844;DHT22;63793;57.632;18.292;2023-03-14T06:04:49;6.90;99.90
37844;DHT22;63793;57.632;18.292;2023-03-14T06:07:16;7.00;99.90
37844;DHT22;63793;57.632;18.292;2023-03-14T06:09:43;7.00;99.90
37844;DHT22;63793;57.632;18.292;2023-03-14T06:12:10;7.10;99.90
37844;DHT22;63793;57.632;18.292;2023-03-14T06:14:41;7.00;99.90
37844;DHT22;63793;57.632;18.292;2023-03-14T06:17:08;7.10;99.90
37844;DHT22;63793;57.632;18.292;2023-03-14T06:19:42;7.10;99.90
37844;DHT22;63793;57.632;18.292;2023-03-14T06:22:12;7.20;99.90
37844;DHT22;63793;57.632;18.292;2023-03-14T06:24:40;7.20;99.90
37844;DHT22;63793;57.632;18.292;2023-03-14T06:27:07;7.30;99.90
37844;DHT22;63793;57.632;18.292;2023-03-14T06:29:34;7.30;99.90
37844;DHT22;63793;57.632;18.292;2023-03-14T06:32:02;7.30;99.90
37844;DHT22;63793;57.632;18.292;2023-03-14T06:34:28;7.30;99.90
37844;DHT22;63793;57.632;18.292;2023-03-14T06:36:55;7.40;99.90
37844;DHT22;63793;57.632;18.292;2023-03-14T06:39:22;7.50;99.90
37844;DHT22;63793;57.632;18.292;2023-03-14T06:41:58;7.50;99.90
37844;DHT22;63793;57.632;18.292;2023-03-14T06:44:26;7.50;99.90
37844;DHT22;63793;57.632;18.292;2023-03-14T06:46:53;7.50;99.90
37844;DHT22;63793;57.632;18.292;2023-03-14T06:49:20;7.50;99.90
37844;DHT22;63793;57.632;18.292;2023-03-14T06:51:50;7.50;99.90
37844;DHT22;63793;57.632;18.292;2023-03-14T06:54:17;7.60;99.90
37844;DHT22;63793;57.632;18.292;2023-03-14T06:56:45;7.70;99.90
37844;DHT22;63793;57.632;18.292;2023-03-14T06:59:13;7.80;99.90
37844;DHT22;63793;57.632;18.292;2023-03-14T07:01:40;7.90;99.90
37844;DHT22;63793;57.632;18.292;2023-03-14T07:04:10;8.10;99.90
37844;DHT22;63793;57.632;18.292;2023-03-14T07:06:41;8.20;99.90
37844;DHT22;63793;57.632;18.292;2023-03-14T07:09:11;8.30;99.90
37844;DHT22;63793;57.632;18.292;2023-03-14T07:11:43;8.40;99.90
37844;DHT22;63793;57.632;18.292;2023-03-14T07:14:10;8.40;99.90
37844;DHT22;63793;57.632;18.292;2023-03-14T07:16:38;8.50;99.90
37844;DHT22;63793;57.632;18.292;2023-03-14T07:19:06;8.50;99.90
37844;DHT22;63793;57.632;18.292;2023-03-14T07:21:33;8.60;99.90
37844;DHT22;63793;57.632;18.292;2023-03-14T07:24:05;8.60;99.90
37844;DHT22;63793;57.632;18.292;2023-03-14T07:26:32;8.70;99.90
37844;DHT22;63793;57.632;18.292;2023-03-14T07:28:59;8.80;99.90
37844;DHT22;63793;57.632;18.292;2023-03-14T07:31:26;8.80;99.90
37844;DHT22;63793;57.632;18.292;2023-03-14T07:33:53;8.80;99.90
37844;DHT22;63793;57.632;18.292;2023-03-14T07:36:22;8.90;99.90
37844;DHT22;63793;57.632;18.292;2023-03-14T07:38:49;9.00;99.90
37844;DHT22;63793;57.632;18.292;2023-03-14T07:41:19;9.10;99.90
37844;DHT22;63793;57.632;18.292;2023-03-14T07:44:05;9.20;99.90
37844;DHT22;63793;57.632;18.292;2023-03-14T07:46:32;9.30;99.90
37844;DHT22;63793;57.632;18.292;2023-03-14T07:48:59;9.40;99.90
37844;DHT22;63793;57.632;18.292;2023-03-14T07:51:26;9.50;99.90
37844;DHT22;63793;57.632;18.292;2023-03-14T07:53:53;9.50;99.90
37844;DHT22;63793;57.632;18.292;2023-03-14T07:56:20;9.50;99.90
37844;DHT22;63793;57.632;18.292;2023-03-14T07:58:46;9.40;99.90
37844;DHT22;63793;57.632;18.292;2023-03-14T08:01:13;9.30;99.90
37844;DHT22;63793;57.632;18.292;2023-03-14T08:03:40;9.20;99.90
37844;DHT22;63793;57.632;18.292;2023-03-14T08:06:07;9.20;99.90
37844;DHT22;63793;57.632;18.292;2023-03-14T08:08:34;9.20;99.90
37844;DHT22;63793;57.632;18.292;2023-03-14T08:11:05;9.20;99.90
37844;DHT22;63793;57.632;18.292;2023-03-14T08:13:32;9.30;99.90
37844;DHT22;63793;57.632;18.292;2023-03-14T08:15:59;9.40;99.90
37844;DHT22;63793;57.632;18.292;2023-03-14T08:18:26;9.40;99.90
37844;DHT22;63793;57.632;18.292;2023-03-14T08:20:53;9.40;99.90
37844;DHT22;63793;57.632;18.292;2023-03-14T08:23:20;9.50;99.90
37844;DHT22;63793;57.632;18.292;2023-03-14T08:25:49;9.50;99.90
37844;DHT22;63793;57.632;18.292;2023-03-14T08:28:17;9.40;99.90
37844;DHT22;63793;57.632;18.292;2023-03-14T08:30:44;9.20;99.90
37844;DHT22;63793;57.632;18.292;2023-03-14T08:33:13;9.10;99.90
37844;DHT22;63793;57.632;18.292;2023-03-14T08:35:40;9.10;99.90
37844;DHT22;63793;57.632;18.292;2023-03-14T08:38:07;9.30;99.90
37844;DHT22;63793;57.632;18.292;2023-03-14T08:40:34;9.30;99.90
37844;DHT22;63793;57.632;18.292;2023-03-14T08:43:00;9.20;99.90
37844;DHT22;63793;57.632;18.292;2023-03-14T08:45:27;9.20;99.90
37844;DHT22;63793;57.632;18.292;2023-03-14T08:47:54;9.00;99.90
37844;DHT22;63793;57.632;18.292;2023-03-14T08:50:21;9.00;99.90
37844;DHT22;63793;57.632;18.292;2023-03-14T08:52:49;8.90;99.90
37844;DHT22;63793;57.632;18.292;2023-03-14T08:55:17;9.00;99.90
37844;DHT22;63793;57.632;18.292;2023-03-14T08:57:43;9.00;99.90
37844;DHT22;63793;57.632;18.292;2023-03-14T09:00:11;9.00;99.90
37844;DHT22;63793;57.632;18.292;2023-03-14T09:02:44;9.10;99.90
37844;DHT22;63793;57.632;18.292;2023-03-14T09:05:11;9.40;99.90
37844;DHT22;63793;57.632;18.292;2023-03-14T09:07:39;9.60;99.90
37844;DHT22;63793;57.632;18.292;2023-03-14T09:10:07;9.60;99.90
37844;DHT22;63793;57.632;18.292;2023-03-14T09:12:34;9.80;99.90
37844;DHT22;63793;57.632;18.292;2023-03-14T09:15:02;9.80;99.90
37844;DHT22;63793;57.632;18.292;2023-03-14T09:17:28;9.90;99.90
37844;DHT22;63793;57.632;18.292;2023-03-14T09:19:55;9.90;99.90
37844;DHT22;63793;57.632;18.292;2023-03-14T09:22:26;9.80;99.90
37844;DHT22;63793;57.632;18.292;2023-03-14T09:24:52;9.80;99.90
37844;DHT22;63793;57.632;18.292;2023-03-14T09:27:19;9.60;99.90
37844;DHT22;63793;57.632;18.292;2023-03-14T09:29:46;9.60;99.90
37844;DHT22;63793;57.632;18.292;2023-03-14T09:32:13;9.60;99.90
37844;DHT22;63793;57.632;18.292;2023-03-14T09:34:40;9.60;99.90
37844;DHT22;63793;57.632;18.292;2023-03-14T09:37:07;9.40;99.90
37844;DHT22;63793;57.632;18.292;2023-03-14T09:39:33;9.30;99.90
37844;DHT22;63793;57.632;18.292;2023-03-14T09:42:03;9.40;99.90
37844;DHT22;63793;57.632;18.292;2023-03-14T09:44:50;9.50;99.90
37844;DHT22;63793;57.632;18.292;2023-03-14T09:47:19;9.50;99.90
37844;DHT22;63793;57.632;18.292;2023-03-14T09:49:47;9.50;99.90
37844;DHT22;63793;57.632;18.292;2023-03-14T09:52:33;9.40;99.90
37844;DHT22;63793;57.632;18.292;2023-03-14T09:55:04;9.30;99.90
37844;DHT22;63793;57.632;18.292;2023-03-14T09:57:33;9.30;99.90
37844;DHT22;63793;57.632;18.292;2023-03-14T10:00:05;9.20;99.90
37844;DHT22;63793;57.632;18.292;2023-03-14T10:02:43;9.20;99.90
37844;DHT22;63793;57.632;18.292;2023-03-14T10:05:18;9.10;99.90
37844;DHT22;63793;57.632;18.292;2023-03-14T10:07:45;9.10;99.90
37844;DHT22;63793;57.632;18.292;2023-03-14T10:10:24;9.10;99.90
37844;DHT22;63793;57.632;18.292;2023-03-14T10:13:10;8.90;99.90
37844;DHT22;63793;57.632;18.292;2023-03-14T10:15:40;8.90;99.90
37844;DHT22;63793;57.632;18.292;2023-03-14T10:18:14;8.90;99.90
37844;DHT22;63793;57.632;18.292;2023-03-14T10:20:43;8.90;99.90
37844;DHT22;63793;57.632;18.292;2023-03-14T10:25:40;9.00;99.90
37844;DHT22;63793;57.632;18.292;2023-03-14T10:28:26;9.10;99.90
37844;DHT22;63793;57.632;18.292;2023-03-14T10:30:55;9.10;99.90
37844;DHT22;63793;57.632;18.292;2023-03-14T10:33:25;9.20;99.90
37844;DHT22;63793;57.632;18.292;2023-03-14T10:35:57;9.30;99.90
37844;DHT22;63793;57.632;18.292;2023-03-14T10:38:28;9.30;99.90
37844;DHT22;63793;57.632;18.292;2023-03-14T10:40:56;9.40;99.90
37844;DHT22;63793;57.632;18.292;2023-03-14T10:46:09;9.30;99.90
37844;DHT22;63793;57.632;18.292;2023-03-14T10:48:56;9.10;99.90
37844;DHT22;63793;57.632;18.292;2023-03-14T10:51:30;9.00;99.90
37844;DHT22;63793;57.632;18.292;2023-03-14T10:54:03;8.80;99.90
37844;DHT22;63793;57.632;18.292;2023-03-14T10:56:35;8.80;99.90
37844;DHT22;63793;57.632;18.292;2023-03-14T10:59:06;8.80;99.90
37844;DHT22;63793;57.632;18.292;2023-03-14T11:09:44;8.90;99.90
37844;DHT22;63793;57.632;18.292;2023-03-14T11:14:55;8.80;99.90
37844;DHT22;63793;57.632;18.292;2023-03-14T11:17:41;8.90;99.90
37844;DHT22;63793;57.632;18.292;2023-03-14T11:20:27;9.00;99.90
37844;DHT22;63793;57.632;18.292;2023-03-14T11:23:12;8.90;99.90
37844;DHT22;63793;57.632;18.292;2023-03-14T11:28:22;8.90;99.90
37844;DHT22;63793;57.632;18.292;2023-03-14T11:30:53;8.80;99.90
37844;DHT22;63793;57.632;18.292;2023-03-14T11:33:38;8.90;99.90
37844;DHT22;63793;57.632;18.292;2023-03-14T11:36:10;8.90;99.90
37844;DHT22;63793;57.632;18.292;2023-03-14T11:38:52;8.90;99.90
37844;DHT22;63793;57.632;18.292;2023-03-14T11:41:36;8.80;99.90
37844;DHT22;63793;57.632;18.292;2023-03-14T11:44:14;8.70;99.90
37844;DHT22;63793;57.632;18.292;2023-03-14T11:49:58;8.60;99.90
37844;DHT22;63793;57.632;18.292;2023-03-14T11:52:37;8.50;99.90
37844;DHT22;63793;57.632;18.292;2023-03-14T11:55:34;8.40;99.90
37844;DHT22;63793;57.632;18.292;2023-03-14T11:58:19;8.20;99.90
37844;DHT22;63793;57.632;18.292;2023-03-14T12:00:49;8.20;99.90
37844;DHT22;63793;57.632;18.292;2023-03-14T12:06:02;8.00;99.90
37844;DHT22;63793;57.632;18.292;2023-03-14T12:11:32;7.90;99.90
37844;DHT22;63793;57.632;18.292;2023-03-14T12:14:00;7.90;99.90
37844;DHT22;63793;57.632;18.292;2023-03-14T12:16:33;7.90;99.90
37844;DHT22;63793;57.632;18.292;2023-03-14T12:21:55;7.80;99.90
37844;DHT22;63793;57.632;18.292;2023-03-14T12:24:31;7.80;99.90
37844;DHT22;63793;57.632;18.292;2023-03-14T12:27:02;7.80;99.90
37844;DHT22;63793;57.632;18.292;2023-03-14T12:29:29;7.70;99.90
37844;DHT22;63793;57.632;18.292;2023-03-14T12:34:28;7.60;99.90
37844;DHT22;63793;57.632;18.292;2023-03-14T12:45:25;7.50;99.90
37844;DHT22;63793;57.632;18.292;2023-03-14T12:50:43;7.40;99.90
37844;DHT22;63793;57.632;18.292;2023-03-14T12:59:56;7.30;99.90
37844;DHT22;63793;57.632;18.292;2023-03-14T13:02:13;7.30;99.90
37844;DHT22;63793;57.632;18.292;2023-03-14T13:10:02;7.40;99.90
37844;DHT22;63793;57.632;18.292;2023-03-14T13:15:33;7.50;99.90
37844;DHT22;63793;57.632;18.292;2023-03-14T13:18:16;7.60;99.90
37844;DHT22;63793;57.632;18.292;2023-03-14T13:21:10;7.60;99.90
37844;DHT22;63793;57.632;18.292;2023-03-14T13:23:38;7.70;99.90
37844;DHT22;63793;57.632;18.292;2023-03-14T13:26:14;7.70;99.90
37844;DHT22;63793;57.632;18.292;2023-03-14T13:28:41;7.70;99.90
37844;DHT22;63793;57.632;18.292;2023-03-14T13:31:23;7.70;99.90
37844;DHT22;63793;57.632;18.292;2023-03-14T13:33:58;7.70;99.90
37844;DHT22;63793;57.632;18.292;2023-03-14T13:36:25;7.70;99.90
37844;DHT22;63793;57.632;18.292;2023-03-14T13:38:59;7.70;99.90
37844;DHT22;63793;57.632;18.292;2023-03-14T13:41:28;7.70;99.90
37844;DHT22;63793;57.632;18.292;2023-03-14T13:44:03;7.70;99.90
37844;DHT22;63793;57.632;18.292;2023-03-14T13:46:34;7.60;99.90
37844;DHT22;63793;57.632;18.292;2023-03-14T13:49:09;7.60;99.90
37844;DHT22;63793;57.632;18.292;2023-03-14T13:51:38;7.50;99.90
37844;DHT22;63793;57.632;18.292;2023-03-14T13:54:14;7.50;99.90
37844;DHT22;63793;57.632;18.292;2023-03-14T13:56:41;7.60;99.90
37844;DHT22;63793;57.632;18.292;2023-03-14T14:01:49;7.60;99.90
37844;DHT22;63793;57.632;18.292;2023-03-14T14:04:19;7.50;99.90
37844;DHT22;63793;57.632;18.292;2023-03-14T14:06:59;7.50;99.90
37844;DHT22;63793;57.632;18.292;2023-03-14T14:12:07;7.50;99.90
37844;DHT22;63793;57.632;18.292;2023-03-14T14:14:55;7.40;99.90
37844;DHT22;63793;57.632;18.292;2023-03-14T14:17:45;7.40;99.90
37844;DHT22;63793;57.632;18.292;2023-03-14T14:22:46;7.50;99.90
37844;DHT22;63793;57.632;18.292;2023-03-14T14:25:14;7.50;99.90
37844;DHT22;63793;57.632;18.292;2023-03-14T14:27:44;7.50;99.90
37844;DHT22;63793;57.632;18.292;2023-03-14T14:32:47;7.50;99.90
37844;DHT22;63793;57.632;18.292;2023-03-14T14:35:34;7.50;99.90
37844;DHT22;63793;57.632;18.292;2023-03-14T14:38:02;7.50;99.90
37844;DHT22;63793;57.632;18.292;2023-03-14T14:40:30;7.50;99.90
37844;DHT22;63793;57.632;18.292;2023-03-14T14:43:04;7.40;99.90
37844;DHT22;63793;57.632;18.292;2023-03-14T14:45:34;7.40;99.90
37844;DHT22;63793;57.632;18.292;2023-03-14T14:50:38;7.40;99.90
37844;DHT22;63793;57.632;18.292;2023-03-14T14:53:27;7.30;99.90
37844;DHT22;63793;57.632;18.292;2023-03-14T14:55:58;7.30;99.90
37844;DHT22;63793;57.632;18.292;2023-03-14T14:58:33;7.30;99.90
37844;DHT22;63793;57.632;18.292;2023-03-14T15:01:07;7.20;99.90
37844;DHT22;63793;57.632;18.292;2023-03-14T15:03:35;7.10;99.90
37844;DHT22;63793;57.632;18.292;2023-03-14T15:06:03;7.10;99.90
37844;DHT22;63793;57.632;18.292;2023-03-14T15:08:30;7.10;99.90
37844;DHT22;63793;57.632;18.292;2023-03-14T15:10:58;7.10;99.90
37844;DHT22;63793;57.632;18.292;2023-03-14T15:13:25;7.10;99.90
37844;DHT22;63793;57.632;18.292;2023-03-14T15:15:53;7.00;99.90
37844;DHT22;63793;57.632;18.292;2023-03-14T15:18:24;7.00;99.90
37844;DHT22;63793;57.632;18.292;2023-03-14T15:20:55;7.00;99.90
37844;DHT22;63793;57.632;18.292;2023-03-14T15:23:22;7.00;99.90
37844;DHT22;63793;57.632;18.292;2023-03-14T15:25:49;6.90;99.90
37844;DHT22;63793;57.632;18.292;2023-03-14T15:28:25;6.90;99.90
37844;DHT22;63793;57.632;18.292;2023-03-14T15:30:54;6.90;99.90
37844;DHT22;63793;57.632;18.292;2023-03-14T15:33:22;6.90;99.90
37844;DHT22;63793;57.632;18.292;2023-03-14T15:35:50;6.80;99.90
37844;DHT22;63793;57.632;18.292;2023-03-14T15:38:19;6.80;99.90
37844;DHT22;63793;57.632;18.292;2023-03-14T15:40:48;6.70;99.90
37844;DHT22;63793;57.632;18.292;2023-03-14T15:43:16;6.60;99.90
37844;DHT22;63793;57.632;18.292;2023-03-14T15:45:43;6.50;99.90
37844;DHT22;63793;57.632;18.292;2023-03-14T15:48:15;6.40;99.90
37844;DHT22;63793;57.632;18.292;2023-03-14T15:50:42;6.30;99.90
37844;DHT22;63793;57.632;18.292;2023-03-14T15:53:10;6.20;99.90
37844;DHT22;63793;57.632;18.292;2023-03-14T15:55:37;6.20;99.90
37844;DHT22;63793;57.632;18.292;2023-03-14T15:58:04;6.20;99.90
37844;DHT22;63793;57.632;18.292;2023-03-14T16:00:31;6.20;99.90
37844;DHT22;63793;57.632;18.292;2023-03-14T16:02:58;6.20;99.90
37844;DHT22;63793;57.632;18.292;2023-03-14T16:05:25;6.20;99.90
37844;DHT22;63793;57.632;18.292;2023-03-14T16:07:52;6.20;99.90
37844;DHT22;63793;57.632;18.292;2023-03-14T16:10:19;6.10;99.90
37844;DHT22;63793;57.632;18.292;2023-03-14T16:12:46;6.10;99.90
37844;DHT22;63793;57.632;18.292;2023-03-14T16:15:13;6.10;99.90
37844;DHT22;63793;57.632;18.292;2023-03-14T16:17:39;6.10;99.90
37844;DHT22;63793;57.632;18.292;2023-03-14T16:20:10;6.00;99.90
37844;DHT22;63793;57.632;18.292;2023-03-14T16:22:38;6.00;99.90
37844;DHT22;63793;57.632;18.292;2023-03-14T16:25:06;5.90;99.90
37844;DHT22;63793;57.632;18.292;2023-03-14T16:27:33;5.90;99.90
37844;DHT22;63793;57.632;18.292;2023-03-14T16:30:00;5.80;99.90
37844;DHT22;63793;57.632;18.292;2023-03-14T16:32:27;5.70;99.90
37844;DHT22;63793;57.632;18.292;2023-03-14T16:34:55;5.60;99.90
37844;DHT22;63793;57.632;18.292;2023-03-14T16:37:24;5.50;99.90
37844;DHT22;63793;57.632;18.292;2023-03-14T16:39:53;5.50;99.90
37844;DHT22;63793;57.632;18.292;2023-03-14T16:42:39;5.40;99.90
37844;DHT22;63793;57.632;18.292;2023-03-14T16:45:27;5.20;99.90
37844;DHT22;63793;57.632;18.292;2023-03-14T16:47:54;5.10;99.90
37844;DHT22;63793;57.632;18.292;2023-03-14T16:50:21;5.10;99.90
37844;DHT22;63793;57.632;18.292;2023-03-14T16:52:48;5.00;99.90
37844;DHT22;63793;57.632;18.292;2023-03-14T16:55:15;5.00;99.90
37844;DHT22;63793;57.632;18.292;2023-03-14T16:57:42;5.00;99.90
37844;DHT22;63793;57.632;18.292;2023-03-14T17:00:09;4.90;99.90
37844;DHT22;63793;57.632;18.292;2023-03-14T17:02:37;4.90;99.90
37844;DHT22;63793;57.632;18.292;2023-03-14T17:05:04;4.90;99.90
37844;DHT22;63793;57.632;18.292;2023-03-14T17:07:31;4.80;99.90
37844;DHT22;63793;57.632;18.292;2023-03-14T17:09:58;4.80;99.90
37844;DHT22;63793;57.632;18.292;2023-03-14T17:12:25;4.80;99.90
37844;DHT22;63793;57.632;18.292;2023-03-14T17:14:52;4.70;99.90
37844;DHT22;63793;57.632;18.292;2023-03-14T17:17:19;4.70;99.90